sensor_id;sensor_type;location;lat;lon;timestamp;pressure;altitude;pressure_sealevel;temperature;humidity
74163;BME280;62515;52.758;5.076;2023-02-22T00:01:34;101627.97;;;6.83;100.00
74163;BME280;62515;52.758;5.076;2023-02-22T00:04:03;101624.31;;;6.86;100.00
74163;BME280;62515;52.758;5.076;2023-02-22T00:06:30;101618.13;;;6.87;100.00
74163;BME280;62515;52.758;5.076;2023-02-22T00:08:58;101622.53;;;6.87;100.00
74163;BME280;62515;52.758;5.076;2023-02-22T00:11:26;101626.13;;;6.86;100.00
74163;BME280;62515;52.758;5.076;2023-02-22T00:13:53;101627.97;;;6.83;100.00
74163;BME280;62515;52.758;5.076;2023-02-22T00:16:23;101633.25;;;6.83;100.00
74163;BME280;62515;52.758;5.076;2023-02-22T00:18:51;101632.47;;;6.81;100.00
74163;BME280;62515;52.758;5.076;2023-02-22T00:21:19;101626.41;;;6.79;100.00
74163;BME280;62515;52.758;5.076;2023-02-22T00:23:47;101630.09;;;6.75;100.00
74163;BME280;62515;52.758;5.076;2023-02-22T00:26:16;101628.25;;;6.77;100.00
74163;BME280;62515;52.758;5.076;2023-02-22T00:28:45;101626.41;;;6.79;100.00
74163;BME280;62515;52.758;5.076;2023-02-22T00:31:12;101625.53;;;6.79;100.00
74163;BME280;62515;52.758;5.076;2023-02-22T00:33:41;101627.25;;;6.80;100.00
74163;BME280;62515;52.758;5.076;2023-02-22T00:36:10;101621.13;;;6.79;100.00
74163;BME280;62515;52.758;5.076;2023-02-22T00:38:38;101624.81;;;6.75;100.00
74163;BME280;62515;52.758;5.076;2023-02-22T00:41:05;101614.22;;;6.75;100.00
74163;BME280;62515;52.758;5.076;2023-02-22T00:43:32;101610.91;;;6.70;100.00
74163;BME280;62515;52.758;5.076;2023-02-22T00:45:59;101604.66;;;6.73;100.00
74163;BME280;62515;52.758;5.076;2023-02-22T00:48:26;101607.34;;;6.71;100.00
74163;BME280;62515;52.758;5.076;2023-02-22T00:50:54;101610.78;;;6.73;100.00
74163;BME280;62515;52.758;5.076;2023-02-22T00:53:23;101604.69;;;6.71;100.00
74163;BME280;62515;52.758;5.076;2023-02-22T00:55:50;101602.06;;;6.71;100.00
74163;BME280;62515;52.758;5.076;2023-02-22T00:58:17;101595.91;;;6.71;100.00
74163;BME280;62515;52.758;5.076;2023-02-22T01:00:44;101600.31;;;6.70;100.00
74163;BME280;62515;52.758;5.076;2023-02-22T01:03:14;101586.47;;;6.65;100.00
74163;BME280;62515;52.758;5.076;2023-02-22T01:05:41;101595.91;;;6.71;100.00
74163;BME280;62515;52.758;5.076;2023-02-22T01:08:11;101586.06;;;6.74;100.00
74163;BME280;62515;52.758;5.076;2023-02-22T01:10:39;101589.59;;;6.73;100.00
74163;BME280;62515;52.758;5.076;2023-02-22T01:13:07;101592.22;;;6.75;100.00
74163;BME280;62515;52.758;5.076;2023-02-22T01:15:37;101591.47;;;6.71;100.00
74163;BME280;62515;52.758;5.076;2023-02-22T01:18:05;101597.69;;;6.70;100.00
74163;BME280;62515;52.758;5.076;2023-02-22T01:20:32;101592.47;;;6.69;100.00
74163;BME280;62515;52.758;5.076;2023-02-22T01:23:01;101590.69;;;6.69;100.00
74163;BME280;62515;52.758;5.076;2023-02-22T01:25:30;101581.16;;;6.65;100.00
74163;BME280;62515;52.758;5.076;2023-02-22T01:28:00;101595.91;;;6.71;100.00
74163;BME280;62515;52.758;5.076;2023-02-22T01:30:29;101580.03;;;6.71;100.00
74163;BME280;62515;52.758;5.076;2023-02-22T01:32:56;101576.47;;;6.72;100.00
74163;BME280;62515;52.758;5.076;2023-02-22T01:35:25;101571.09;;;6.73;100.00
74163;BME280;62515;52.758;5.076;2023-02-22T01:37:52;101565.03;;;6.71;100.00
74163;BME280;62515;52.758;5.076;2023-02-22T01:40:21;101569.44;;;6.71;100.00
74163;BME280;62515;52.758;5.076;2023-02-22T01:42:53;101567.81;;;6.68;100.00
74163;BME280;62515;52.758;5.076;2023-02-22T01:45:58;101560.78;;;6.67;100.00
74163;BME280;62515;52.758;5.076;2023-02-22T01:48:33;101556.56;;;6.63;100.00
74163;BME280;62515;52.758;5.076;2023-02-22T01:51:04;101561.84;;;6.63;100.00
74163;BME280;62515;52.758;5.076;2023-02-22T01:53:36;101560.06;;;6.64;100.00
74163;BME280;62515;52.758;5.076;2023-02-22T01:56:04;101561.19;;;6.58;100.00
74163;BME280;62515;52.758;5.076;2023-02-22T01:58:37;101560.34;;;6.58;100.00
74163;BME280;62515;52.758;5.076;2023-02-22T02:01:06;101553.44;;;6.54;100.00
74163;BME280;62515;52.758;5.076;2023-02-22T02:03:35;101553.53;;;6.52;100.00
74163;BME280;62515;52.758;5.076;2023-02-22T02:06:05;101545.66;;;6.51;100.00
74163;BME280;62515;52.758;5.076;2023-02-22T02:08:37;101539.53;;;6.50;100.00
74163;BME280;62515;52.758;5.076;2023-02-22T02:11:07;101543.22;;;6.46;100.00
74163;BME280;62515;52.758;5.076;2023-02-22T02:13:36;101545.75;;;6.49;100.00
74163;BME280;62515;52.758;5.076;2023-02-22T02:16:03;101549.31;;;6.48;100.00
74163;BME280;62515;52.758;5.076;2023-02-22T02:18:30;101552.09;;;6.45;100.00
74163;BME280;62515;52.758;5.076;2023-02-22T02:21:27;101553.81;;;6.46;100.00
74163;BME280;62515;52.758;5.076;2023-02-22T02:27:00;101548.56;;;6.45;100.00
74163;BME280;62515;52.758;5.076;2023-02-22T02:29:49;101548.66;;;6.43;100.00
74163;BME280;62515;52.758;5.076;2023-02-22T02:32:40;101545.19;;;6.41;100.00
74163;BME280;62515;52.758;5.076;2023-02-22T02:35:13;101529.34;;;6.41;100.00
74163;BME280;62515;52.758;5.076;2023-02-22T02:37:49;101522.34;;;6.40;100.00
74163;BME280;62515;52.758;5.076;2023-02-22T02:40:22;101534.75;;;6.38;100.00
74163;BME280;62515;52.758;5.076;2023-02-22T02:43:00;101525.22;;;6.34;100.00
74163;BME280;62515;52.758;5.076;2023-02-22T02:45:35;101522.53;;;6.36;100.00
74163;BME280;62515;52.758;5.076;2023-02-22T02:48:08;101516.34;;;6.37;100.00
74163;BME280;62515;52.758;5.076;2023-02-22T02:50:39;101516.47;;;6.34;100.00
74163;BME280;62515;52.758;5.076;2023-02-22T02:53:08;101500.16;;;6.24;100.00
74163;BME280;62515;52.758;5.076;2023-02-22T02:55:36;101503.72;;;6.23;100.00
74163;BME280;62515;52.758;5.076;2023-02-22T02:58:06;101496.09;;;6.15;100.00
74163;BME280;62515;52.758;5.076;2023-02-22T03:00:37;101503.25;;;6.13;100.00
74163;BME280;62515;52.758;5.076;2023-02-22T03:03:17;101493.69;;;6.11;100.00
74163;BME280;62515;52.758;5.076;2023-02-22T03:06:02;101499.88;;;6.10;100.00
74163;BME280;62515;52.758;5.076;2023-02-22T03:08:40;101492.69;;;6.13;100.00
74163;BME280;62515;52.758;5.076;2023-02-22T03:11:12;101498.16;;;6.09;100.00
74163;BME280;62515;52.758;5.076;2023-02-22T03:13:49;101499.88;;;6.10;100.00
74163;BME280;62515;52.758;5.076;2023-02-22T03:16:25;101488.63;;;6.05;100.00
74163;BME280;62515;52.758;5.076;2023-02-22T03:19:02;101489.44;;;6.07;100.00
74163;BME280;62515;52.758;5.076;2023-02-22T03:21:39;101490.44;;;6.04;100.00
74163;BME280;62515;52.758;5.076;2023-02-22T03:24:08;101489.63;;;6.02;100.00
74163;BME280;62515;52.758;5.076;2023-02-22T03:26:42;101481.91;;;5.98;100.00
74163;BME280;62515;52.758;5.076;2023-02-22T03:29:12;101482.97;;;5.94;100.00
74163;BME280;62515;52.758;5.076;2023-02-22T03:31:45;101473.31;;;5.93;100.00
74163;BME280;62515;52.758;5.076;2023-02-22T03:34:20;101477.59;;;5.95;100.00
74163;BME280;62515;52.758;5.076;2023-02-22T03:36:52;101476.88;;;5.92;100.00
74163;BME280;62515;52.758;5.076;2023-02-22T03:39:22;101482.97;;;5.94;100.00
74163;BME280;62515;52.758;5.076;2023-02-22T03:41:50;101469.78;;;5.92;100.00
74163;BME280;62515;52.758;5.076;2023-02-22T03:44:24;101469.88;;;5.91;100.00
74163;BME280;62515;52.758;5.076;2023-02-22T03:46:54;101465.69;;;5.85;100.00
74163;BME280;62515;52.758;5.076;2023-02-22T03:49:29;101461.50;;;5.79;100.00
74163;BME280;62515;52.758;5.076;2023-02-22T03:51:59;101462.63;;;5.74;100.00
74163;BME280;62515;52.758;5.076;2023-02-22T03:54:28;101462.53;;;5.75;100.00
74163;BME280;62515;52.758;5.076;2023-02-22T03:56:57;101459.91;;;5.75;100.00
74163;BME280;62515;52.758;5.076;2023-02-22T03:59:25;101465.09;;;5.78;100.00
74163;BME280;62515;52.758;5.076;2023-02-22T04:01:53;101459.84;;;5.77;100.00
74163;BME280;62515;52.758;5.076;2023-02-22T04:04:20;101451.97;;;5.75;100.00
74163;BME280;62515;52.758;5.076;2023-02-22T04:06:52;101458.06;;;5.77;100.00
74163;BME280;62515;52.758;5.076;2023-02-22T04:09:20;101457.41;;;5.72;100.00
74163;BME280;62515;52.758;5.076;2023-02-22T04:11:47;101452.25;;;5.69;100.00
74163;BME280;62515;52.758;5.076;2023-02-22T04:14:15;101459.38;;;5.67;100.00
74163;BME280;62515;52.758;5.076;2023-02-22T04:16:42;101458.72;;;5.62;100.00
74163;BME280;62515;52.758;5.076;2023-02-22T04:19:09;101450.06;;;5.59;100.00
74163;BME280;62515;52.758;5.076;2023-02-22T04:21:38;101450.00;;;5.60;100.00
74163;BME280;62515;52.758;5.076;2023-02-22T04:24:10;101455.28;;;5.60;100.00
74163;BME280;62515;52.758;5.076;2023-02-22T04:26:40;101449.25;;;5.57;100.00
74163;BME280;62515;52.758;5.076;2023-02-22T04:29:07;101444.84;;;5.57;100.00
74163;BME280;62515;52.758;5.076;2023-02-22T04:31:37;101450.00;;;5.60;100.00
74163;BME280;62515;52.758;5.076;2023-02-22T04:34:06;101445.69;;;5.58;100.00
74163;BME280;62515;52.758;5.076;2023-02-22T04:36:36;101439.69;;;5.54;100.00
74163;BME280;62515;52.758;5.076;2023-02-22T04:39:03;101432.81;;;5.50;100.00
74163;BME280;62515;52.758;5.076;2023-02-22T04:41:32;101435.44;;;5.50;100.00
74163;BME280;62515;52.758;5.076;2023-02-22T04:43:59;101436.31;;;5.51;100.00
74163;BME280;62515;52.758;5.076;2023-02-22T04:46:29;101429.38;;;5.48;100.00
74163;BME280;62515;52.758;5.076;2023-02-22T04:48:56;101427.78;;;5.44;100.00
74163;BME280;62515;52.758;5.076;2023-02-22T04:51:28;101420.91;;;5.40;100.00
74163;BME280;62515;52.758;5.076;2023-02-22T04:53:59;101416.63;;;5.38;100.00
74163;BME280;62515;52.758;5.076;2023-02-22T04:56:26;101416.00;;;5.31;100.00
74163;BME280;62515;52.758;5.076;2023-02-22T04:58:54;101403.81;;;5.28;100.00
74163;BME280;62515;52.758;5.076;2023-02-22T05:01:22;101404.84;;;5.24;100.00
74163;BME280;62515;52.758;5.076;2023-02-22T05:03:49;101409.13;;;5.27;100.00
74163;BME280;62515;52.758;5.076;2023-02-22T05:06:16;101385.59;;;5.22;100.00
74163;BME280;62515;52.758;5.076;2023-02-22T05:08:44;101401.09;;;5.30;100.00
74163;BME280;62515;52.758;5.076;2023-02-22T05:11:11;101387.28;;;5.23;100.00
74163;BME280;62515;52.758;5.076;2023-02-22T05:13:38;101388.41;;;5.18;100.00
74163;BME280;62515;52.758;5.076;2023-02-22T05:16:06;101392.91;;;5.16;100.00
74163;BME280;62515;52.758;5.076;2023-02-22T05:18:35;101393.94;;;5.12;100.00
74163;BME280;62515;52.758;5.076;2023-02-22T05:21:02;101381.91;;;5.05;100.00
74163;BME280;62515;52.758;5.076;2023-02-22T05:23:28;101384.00;;;4.97;100.00
74163;BME280;62515;52.758;5.076;2023-02-22T05:25:55;101381.63;;;4.91;100.00
74163;BME280;62515;52.758;5.076;2023-02-22T05:28:22;101387.69;;;4.93;100.00
74163;BME280;62515;52.758;5.076;2023-02-22T05:30:49;101376.47;;;4.88;100.00
74163;BME280;62515;52.758;5.076;2023-02-22T05:33:18;101374.91;;;4.82;100.00
74163;BME280;62515;52.758;5.076;2023-02-22T05:35:45;101374.47;;;4.71;100.00
74163;BME280;62515;52.758;5.076;2023-02-22T05:38:12;101367.09;;;4.57;100.00
74163;BME280;62515;52.758;5.076;2023-02-22T05:40:40;101370.88;;;4.50;100.00
74163;BME280;62515;52.758;5.076;2023-02-22T05:43:07;101361.25;;;4.49;100.00
74163;BME280;62515;52.758;5.076;2023-02-22T05:45:34;101351.53;;;4.51;100.00
74163;BME280;62515;52.758;5.076;2023-02-22T05:48:02;101362.06;;;4.51;100.00
74163;BME280;62515;52.758;5.076;2023-02-22T05:50:30;101360.75;;;4.40;100.00
74163;BME280;62515;52.758;5.076;2023-02-22T05:52:57;101352.97;;;4.37;100.00
74163;BME280;62515;52.758;5.076;2023-02-22T05:55:24;101353.97;;;4.33;100.00
74163;BME280;62515;52.758;5.076;2023-02-22T05:57:51;101356.81;;;4.28;100.00
74163;BME280;62515;52.758;5.076;2023-02-22T06:00:21;101355.28;;;4.22;100.00
74163;BME280;62515;52.758;5.076;2023-02-22T06:02:52;101359.69;;;4.22;100.00
74163;BME280;62515;52.758;5.076;2023-02-22T06:05:19;101357.16;;;4.19;100.00
74163;BME280;62515;52.758;5.076;2023-02-22T06:07:47;101351.91;;;4.19;100.00
74163;BME280;62515;52.758;5.076;2023-02-22T06:10:15;101348.31;;;4.20;100.00
74163;BME280;62515;52.758;5.076;2023-02-22T06:12:41;101347.38;;;4.22;100.00
74163;BME280;62515;52.758;5.076;2023-02-22T06:15:10;101345.41;;;4.28;100.00
74163;BME280;62515;52.758;5.076;2023-02-22T06:17:37;101343.44;;;4.33;100.00
74163;BME280;62515;52.758;5.076;2023-02-22T06:20:07;101334.75;;;4.31;100.00
74163;BME280;62515;52.758;5.076;2023-02-22T06:22:35;101340.94;;;4.30;100.00
74163;BME280;62515;52.758;5.076;2023-02-22T06:25:04;101340.94;;;4.30;100.00
74163;BME280;62515;52.758;5.076;2023-02-22T06:38:07;101332.47;;;4.45;100.00
74163;BME280;62515;52.758;5.076;2023-02-22T06:40:38;101339.31;;;4.49;100.00
74163;BME280;62515;52.758;5.076;2023-02-22T06:43:04;101330.63;;;4.47;100.00
74163;BME280;62515;52.758;5.076;2023-02-22T06:45:31;101338.41;;;4.50;100.00
74163;BME280;62515;52.758;5.076;2023-02-22T06:47:58;101329.63;;;4.49;100.00
74163;BME280;62515;52.758;5.076;2023-02-22T06:50:27;101327.72;;;4.53;100.00
74163;BME280;62515;52.758;5.076;2023-02-22T06:52:54;101324.97;;;4.56;100.00
74163;BME280;62515;52.758;5.076;2023-02-22T06:55:23;101330.88;;;4.62;100.00
74163;BME280;62515;52.758;5.076;2023-02-22T06:57:52;101332.50;;;4.65;100.00
74163;BME280;62515;52.758;5.076;2023-02-22T07:00:21;101328.94;;;4.67;100.00
74163;BME280;62515;52.758;5.076;2023-02-22T07:02:53;101330.44;;;4.73;100.00
74163;BME280;62515;52.758;5.076;2023-02-22T07:05:21;101331.25;;;4.75;100.00
74163;BME280;62515;52.758;5.076;2023-02-22T07:07:50;101340.84;;;4.78;100.00
74163;BME280;62515;52.758;5.076;2023-02-22T07:10:20;101339.03;;;4.78;100.00
74163;BME280;62515;52.758;5.076;2023-02-22T07:12:47;101346.03;;;4.79;100.00
74163;BME280;62515;52.758;5.076;2023-02-22T07:15:16;101348.53;;;4.82;100.00
74163;BME280;62515;52.758;5.076;2023-02-22T07:17:43;101345.00;;;4.83;100.00
74163;BME280;62515;52.758;5.076;2023-02-22T07:20:10;101345.59;;;4.90;100.00
74163;BME280;62515;52.758;5.076;2023-02-22T07:22:37;101343.75;;;4.92;100.00
74163;BME280;62515;52.758;5.076;2023-02-22T07:25:06;101345.34;;;4.96;100.00
74163;BME280;62515;52.758;5.076;2023-02-22T07:27:34;101344.44;;;4.97;100.00
74163;BME280;62515;52.758;5.076;2023-02-22T07:30:02;101342.53;;;5.00;100.00
74163;BME280;62515;52.758;5.076;2023-02-22T07:32:31;101344.31;;;5.00;100.00
74163;BME280;62515;52.758;5.076;2023-02-22T07:34:58;101354.88;;;5.00;100.00
74163;BME280;62515;52.758;5.076;2023-02-22T07:37:25;101352.22;;;5.00;100.00
74163;BME280;62515;52.758;5.076;2023-02-22T07:39:52;101354.13;;;4.96;100.00
74163;BME280;62515;52.758;5.076;2023-02-22T07:42:19;101356.03;;;4.93;100.00
74163;BME280;62515;52.758;5.076;2023-02-22T07:44:46;101352.47;;;4.94;100.00
74163;BME280;62515;52.758;5.076;2023-02-22T07:47:13;101346.34;;;4.93;100.00
74163;BME280;62515;52.758;5.076;2023-02-22T07:49:42;101333.19;;;4.92;100.00
74163;BME280;62515;52.758;5.076;2023-02-22T07:52:09;101332.22;;;4.94;100.00
74163;BME280;62515;52.758;5.076;2023-02-22T07:54:36;101326.09;;;4.94;100.00
74163;BME280;62515;52.758;5.076;2023-02-22T07:57:03;101321.50;;;4.99;100.00
74163;BME280;62515;52.758;5.076;2023-02-22T07:59:29;101325.25;;;4.93;100.00
74163;BME280;62515;52.758;5.076;2023-02-22T08:01:56;101314.56;;;4.96;100.00
74163;BME280;62515;52.758;5.076;2023-02-22T08:04:24;101310.88;;;5.00;100.00
74163;BME280;62515;52.758;5.076;2023-02-22T08:06:52;101321.44;;;5.00;100.00
74163;BME280;62515;52.758;5.076;2023-02-22T08:09:19;101326.59;;;5.03;100.00
74163;BME280;62515;52.758;5.076;2023-02-22T08:11:45;101323.63;;;5.11;100.00
74163;BME280;62515;52.758;5.076;2023-02-22T08:14:14;101327.06;;;5.13;100.00
74163;BME280;62515;52.758;5.076;2023-02-22T08:16:41;101321.06;;;5.09;100.00
74163;BME280;62515;52.758;5.076;2023-02-22T08:19:08;101327.84;;;5.15;100.00
74163;BME280;62515;52.758;5.076;2023-02-22T08:21:35;101329.63;;;5.14;100.00
74163;BME280;62515;52.758;5.076;2023-02-22T08:24:04;101337.41;;;5.17;100.00
74163;BME280;62515;52.758;5.076;2023-02-22T08:26:31;101349.66;;;5.20;100.00
74163;BME280;62515;52.758;5.076;2023-02-22T08:28:57;101343.25;;;5.25;100.00
74163;BME280;62515;52.758;5.076;2023-02-22T08:31:25;101350.16;;;5.28;100.00
74163;BME280;62515;52.758;5.076;2023-02-22T08:33:52;101345.66;;;5.30;100.00
74163;BME280;62515;52.758;5.076;2023-02-22T08:36:19;101330.69;;;5.31;100.00
74163;BME280;62515;52.758;5.076;2023-02-22T08:38:46;101324.19;;;5.39;100.00
74163;BME280;62515;52.758;5.076;2023-02-22T08:41:14;101320.25;;;5.49;100.00
74163;BME280;62515;52.758;5.076;2023-02-22T08:43:42;101332.22;;;5.56;100.00
74163;BME280;62515;52.758;5.076;2023-02-22T08:46:09;101325.53;;;5.49;100.00
74163;BME280;62515;52.758;5.076;2023-02-22T08:48:36;101316.78;;;5.47;100.00
74163;BME280;62515;52.758;5.076;2023-02-22T08:51:03;101323.41;;;5.57;100.00
74163;BME280;62515;52.758;5.076;2023-02-22T08:53:30;101329.53;;;5.58;100.00
74163;BME280;62515;52.758;5.076;2023-02-22T08:55:57;101318.38;;;5.51;100.00
74163;BME280;62515;52.758;5.076;2023-02-22T08:58:25;101322.19;;;5.44;100.00
74163;BME280;62515;52.758;5.076;2023-02-22T09:00:52;101311.91;;;5.38;100.00
74163;BME280;62515;52.758;5.076;2023-02-22T09:03:19;101312.69;;;5.40;100.00
74163;BME280;62515;52.758;5.076;2023-02-22T09:05:46;101319.78;;;5.40;100.00
74163;BME280;62515;52.758;5.076;2023-02-22T09:08:14;101313.63;;;5.39;100.00
74163;BME280;62515;52.758;5.076;2023-02-22T09:10:41;101309.09;;;5.43;100.00
74163;BME280;62515;52.758;5.076;2023-02-22T09:13:09;101303.31;;;5.53;100.00
74163;BME280;62515;52.758;5.076;2023-02-22T09:15:38;101308.75;;;5.50;100.00
74163;BME280;62515;52.758;5.076;2023-02-22T09:18:06;101310.97;;;5.59;100.00
74163;BME280;62515;52.758;5.076;2023-02-22T09:20:34;101304.50;;;5.66;100.00
74163;BME280;62515;52.758;5.076;2023-02-22T09:23:02;101298.03;;;5.73;100.00
74163;BME280;62515;52.758;5.076;2023-02-22T09:25:30;101303.72;;;5.85;100.00
74163;BME280;62515;52.758;5.076;2023-02-22T09:27:57;101300.88;;;5.89;100.00
74163;BME280;62515;52.758;5.076;2023-02-22T09:30:26;101299.03;;;5.71;100.00
74163;BME280;62515;52.758;5.076;2023-02-22T09:32:57;101300.75;;;5.72;100.00
74163;BME280;62515;52.758;5.076;2023-02-22T09:35:25;101298.38;;;5.66;100.00
74163;BME280;62515;52.758;5.076;2023-02-22T09:37:57;101287.47;;;5.73;100.00
74163;BME280;62515;52.758;5.076;2023-02-22T09:40:32;101287.47;;;5.73;100.00
74163;BME280;62515;52.758;5.076;2023-02-22T09:43:07;101278.50;;;5.77;100.00
74163;BME280;62515;52.758;5.076;2023-02-22T09:45:38;101277.81;;;5.93;100.00
74163;BME280;62515;52.758;5.076;2023-02-22T09:48:13;101278.22;;;5.84;100.00
74163;BME280;62515;52.758;5.076;2023-02-22T09:50:50;101274.56;;;5.88;100.00
74163;BME280;62515;52.758;5.076;2023-02-22T09:53:23;101270.75;;;5.93;100.00
74163;BME280;62515;52.758;5.076;2023-02-22T09:55:54;101272.06;;;6.03;100.00
74163;BME280;62515;52.758;5.076;2023-02-22T09:58:24;101252.38;;;6.10;100.00
74163;BME280;62515;52.758;5.076;2023-02-22T10:00:56;101262.63;;;6.16;100.00
74163;BME280;62515;52.758;5.076;2023-02-22T10:03:29;101266.44;;;6.11;100.00
74163;BME280;62515;52.758;5.076;2023-02-22T10:06:03;101276.00;;;6.32;100.00
74163;BME280;62515;52.758;5.076;2023-02-22T10:08:32;101277.13;;;6.26;100.00
74163;BME280;62515;52.758;5.076;2023-02-22T10:11:12;101267.56;;;6.24;100.00
74163;BME280;62515;52.758;5.076;2023-02-22T10:13:50;101259.00;;;6.19;100.00
74163;BME280;62515;52.758;5.076;2023-02-22T10:16:25;101249.56;;;6.32;100.00
74163;BME280;62515;52.758;5.076;2023-02-22T10:19:17;101239.91;;;6.31;100.00
74163;BME280;62515;52.758;5.076;2023-02-22T10:22:12;101239.19;;;6.27;100.00
74163;BME280;62515;52.758;5.076;2023-02-22T10:24:53;101239.06;;;6.30;100.00
74163;BME280;62515;52.758;5.076;2023-02-22T10:27:23;101235.63;;;6.28;100.00
74163;BME280;62515;52.758;5.076;2023-02-22T10:29:59;101245.13;;;6.32;100.00
74163;BME280;62515;52.758;5.076;2023-02-22T10:32:54;101244.72;;;6.23;100.00
74163;BME280;62515;52.758;5.076;2023-02-22T10:35:28;101244.97;;;6.36;100.00
74163;BME280;62515;52.758;5.076;2023-02-22T10:37:59;101233.81;;;6.48;100.00
74163;BME280;62515;52.758;5.076;2023-02-22T10:40:28;101239.41;;;6.77;100.00
74163;BME280;62515;52.758;5.076;2023-02-22T10:42:57;101234.59;;;6.86;100.00
74163;BME280;62515;52.758;5.076;2023-02-22T10:45:27;101229.75;;;6.94;100.00
74163;BME280;62515;52.758;5.076;2023-02-22T10:47:56;101230.09;;;7.05;100.00
74163;BME280;62515;52.758;5.076;2023-02-22T10:50:28;101234.25;;;7.09;100.00
74163;BME280;62515;52.758;5.076;2023-02-22T10:52:55;101231.16;;;7.01;100.00
74163;BME280;62515;52.758;5.076;2023-02-22T10:55:24;101242.34;;;7.06;100.00
74163;BME280;62515;52.758;5.076;2023-02-22T10:57:59;101261.38;;;7.14;100.00
74163;BME280;62515;52.758;5.076;2023-02-22T11:00:30;101263.09;;;7.15;100.00
74163;BME280;62515;52.758;5.076;2023-02-22T11:02:59;101251.72;;;7.30;100.00
74163;BME280;62515;52.758;5.076;2023-02-22T11:05:37;101245.72;;;7.44;100.00
74163;BME280;62515;52.758;5.076;2023-02-22T11:08:23;101251.22;;;7.22;100.00
74163;BME280;62515;52.758;5.076;2023-02-22T11:10:52;101250.00;;;7.12;100.00
74163;BME280;62515;52.758;5.076;2023-02-22T11:13:24;101245.16;;;7.20;100.00
74163;BME280;62515;52.758;5.076;2023-02-22T11:15:52;101246.97;;;7.36;100.00
74163;BME280;62515;52.758;5.076;2023-02-22T11:18:25;101239.06;;;7.52;100.00
74163;BME280;62515;52.758;5.076;2023-02-22T11:21:04;101231.16;;;7.68;100.00
74163;BME280;62515;52.758;5.076;2023-02-22T11:23:33;101229.81;;;7.76;100.00
74163;BME280;62515;52.758;5.076;2023-02-22T11:26:06;101228.09;;;7.75;100.00
74163;BME280;62515;52.758;5.076;2023-02-22T11:28:35;101222.97;;;7.72;100.00
74163;BME280;62515;52.758;5.076;2023-02-22T11:31:24;101231.47;;;7.62;100.00
74163;BME280;62515;52.758;5.076;2023-02-22T11:33:58;101235.88;;;7.46;100.00
74163;BME280;62515;52.758;5.076;2023-02-22T11:36:33;101229.34;;;7.35;100.00
74163;BME280;62515;52.758;5.076;2023-02-22T11:39:25;101221.13;;;7.24;100.00
74163;BME280;62515;52.758;5.076;2023-02-22T11:41:55;101226.47;;;7.40;100.00
74163;BME280;62515;52.758;5.076;2023-02-22T11:44:30;101229.72;;;7.45;100.00
74163;BME280;62515;52.758;5.076;2023-02-22T11:47:01;101221.25;;;7.38;100.00
74163;BME280;62515;52.758;5.076;2023-02-22T11:49:32;101228.41;;;7.36;100.00
74163;BME280;62515;52.758;5.076;2023-02-22T11:52:13;101221.25;;;7.38;100.00
74163;BME280;62515;52.758;5.076;2023-02-22T11:55:06;101227.56;;;7.36;100.00
74163;BME280;62515;52.758;5.076;2023-02-22T11:57:46;101241.88;;;7.32;100.00
74163;BME280;62515;52.758;5.076;2023-02-22T12:00:22;101242.84;;;7.31;100.00
74163;BME280;62515;52.758;5.076;2023-02-22T12:03:20;101241.44;;;7.24;100.00
74163;BME280;62515;52.758;5.076;2023-02-22T12:06:02;101232.31;;;7.29;100.00
74163;BME280;62515;52.758;5.076;2023-02-22T12:08:43;101206.72;;;7.30;100.00
74163;BME280;62515;52.758;5.076;2023-02-22T12:11:19;101217.44;;;7.44;100.00
74163;BME280;62515;52.758;5.076;2023-02-22T12:14:02;101217.22;;;7.31;100.00
74163;BME280;62515;52.758;5.076;2023-02-22T12:16:44;101211.84;;;7.33;100.00
74163;BME280;62515;52.758;5.076;2023-02-22T12:19:25;101211.94;;;7.31;100.00
74163;BME280;62515;52.758;5.076;2023-02-22T12:21:59;101207.56;;;7.30;100.00
74163;BME280;62515;52.758;5.076;2023-02-22T12:24:36;101200.66;;;7.28;100.00
74163;BME280;62515;52.758;5.076;2023-02-22T12:27:08;101198.97;;;7.43;100.00
74163;BME280;62515;52.758;5.076;2023-02-22T12:29:40;101196.19;;;7.28;100.00
74163;BME280;62515;52.758;5.076;2023-02-22T12:32:13;101194.88;;;7.37;100.00
74163;BME280;62515;52.758;5.076;2023-02-22T12:34:44;101186.28;;;7.32;100.00
74163;BME280;62515;52.758;5.076;2023-02-22T12:37:17;101179.22;;;7.32;100.00
74163;BME280;62515;52.758;5.076;2023-02-22T12:39:54;101164.94;;;7.35;100.00
74163;BME280;62515;52.758;5.076;2023-02-22T12:42:24;101172.78;;;7.54;100.00
74163;BME280;62515;52.758;5.076;2023-02-22T12:44:58;101177.25;;;7.69;100.00
74163;BME280;62515;52.758;5.076;2023-02-22T12:47:36;101159.38;;;7.57;100.00
74163;BME280;62515;52.758;5.076;2023-02-22T12:50:11;101160.16;;;7.74;100.00
74163;BME280;62515;52.758;5.076;2023-02-22T12:52:45;101164.69;;;7.72;100.00
74163;BME280;62515;52.758;5.076;2023-02-22T12:55:21;101164.28;;;7.80;100.00
74163;BME280;62515;52.758;5.076;2023-02-22T12:57:54;101164.63;;;7.89;100.00
74163;BME280;62515;52.758;5.076;2023-02-22T13:00:26;101170.50;;;7.95;100.00
74163;BME280;62515;52.758;5.076;2023-02-22T13:03:02;101167.97;;;8.09;100.00
74163;BME280;62515;52.758;5.076;2023-02-22T13:05:34;101168.66;;;8.12;100.00
74163;BME280;62515;52.758;5.076;2023-02-22T13:08:12;101174.19;;;8.23;100.00
74163;BME280;62515;52.758;5.076;2023-02-22T13:11:02;101179.31;;;8.26;100.00
74163;BME280;62515;52.758;5.076;2023-02-22T13:13:38;101171.69;;;8.20;100.00
74163;BME280;62515;52.758;5.076;2023-02-22T13:16:15;101165.47;;;8.21;100.00
74163;BME280;62515;52.758;5.076;2023-02-22T13:18:52;101163.25;;;8.14;100.00
74163;BME280;62515;52.758;5.076;2023-02-22T13:21:27;101167.34;;;8.19;100.00
74163;BME280;62515;52.758;5.076;2023-02-22T13:24:01;101166.78;;;8.30;100.00